createdAt,value
2022-12-19T00:01:18.645Z,101334.53
2022-12-19T00:03:50.648Z,101129.63
2022-12-19T00:06:18.623Z,101228.13
2022-12-19T00:08:47.875Z,101287.25
2022-12-19T00:11:15.243Z,101225.16
2022-12-19T00:13:42.961Z,101323.13
2022-12-19T00:16:13.495Z,101203.25
2022-12-19T00:18:41.358Z,101345.81
2022-12-19T00:21:08.542Z,101325.19
2022-12-19T00:23:35.741Z,101292.06
2022-12-19T00:26:09.691Z,101127.66
2022-12-19T00:28:36.311Z,101297.81
2022-12-19T00:31:04.090Z,101308.00
2022-12-19T00:33:30.674Z,101107.97
2022-12-19T00:36:05.136Z,101277.03
2022-12-19T00:38:32.149Z,101308.41
2022-12-19T00:41:08.405Z,101308.56
2022-12-19T00:43:35.100Z,101303.25
2022-12-19T00:46:06.775Z,101233.63
2022-12-19T00:48:33.895Z,101302.47
2022-12-19T00:51:06.785Z,101268.44
2022-12-19T00:53:34.425Z,101285.75
2022-12-19T00:56:06.411Z,101316.66
2022-12-19T00:58:35.654Z,101305.16
2022-12-19T01:01:07.473Z,101275.63
2022-12-19T01:03:34.205Z,101289.56
2022-12-19T01:06:00.595Z,101267.25
2022-12-19T01:08:27.154Z,101208.13
2022-12-19T01:10:55.145Z,101206.28
2022-12-19T01:13:22.926Z,101258.59
2022-12-19T01:15:49.345Z,101150.53
2022-12-19T01:18:15.927Z,101199.59
2022-12-19T01:20:45.269Z,101253.69
2022-12-19T01:23:14.095Z,101181.53
2022-12-19T01:25:45.797Z,101106.59
2022-12-19T01:28:15.039Z,101233.50
2022-12-19T01:30:42.812Z,101263.34
2022-12-19T01:33:14.839Z,101229.50
2022-12-19T01:35:42.616Z,101243.25
2022-12-19T01:38:15.048Z,101214.88
2022-12-19T01:40:48.706Z,101116.97
2022-12-19T01:43:15.622Z,101137.38
2022-12-19T01:45:45.829Z,101210.75
2022-12-19T01:48:35.782Z,101245.22
2022-12-19T01:51:13.964Z,101239.41
2022-12-19T01:53:49.279Z,101215.78
2022-12-19T01:56:22.625Z,101203.78
2022-12-19T01:58:59.425Z,101169.84
2022-12-19T02:01:33.704Z,101099.38
2022-12-19T02:04:02.353Z,101111.88
2022-12-19T02:06:30.431Z,101079.00
2022-12-19T02:08:57.426Z,101033.78
2022-12-19T02:11:23.868Z,101116.44
2022-12-19T02:13:50.487Z,101071.25
2022-12-19T02:16:43.654Z,101186.16
2022-12-19T02:19:38.195Z,101176.66
2022-12-19T02:22:21.749Z,101061.75
2022-12-19T02:25:05.318Z,101124.38
2022-12-19T02:28:00.766Z,101115.84
2022-12-19T02:30:48.034Z,101135.16
2022-12-19T02:33:31.308Z,101131.72
2022-12-19T02:36:08.375Z,101051.78
2022-12-19T02:38:47.566Z,101148.25
2022-12-19T02:41:43.004Z,101130.28
2022-12-19T02:44:19.278Z,101132.00
2022-12-19T02:46:47.776Z,101063.97
2022-12-19T02:49:26.194Z,101121.56
2022-12-19T02:51:57.286Z,101025.84
2022-12-19T02:54:23.980Z,101102.41
2022-12-19T02:56:59.271Z,100971.25
2022-12-19T03:00:03.447Z,101110.13
2022-12-19T03:02:36.095Z,101112.47
2022-12-19T03:05:05.646Z,101134.59
2022-12-19T03:07:52.173Z,101137.97
2022-12-19T03:10:35.669Z,101137.28
2022-12-19T03:13:12.223Z,101092.88
2022-12-19T03:15:41.168Z,101111.78
2022-12-19T03:18:08.173Z,101108.44
2022-12-19T03:21:02.546Z,100951.28
2022-12-19T03:23:30.570Z,101126.69
2022-12-19T03:26:06.593Z,101058.97
2022-12-19T03:28:47.391Z,101100.72
2022-12-19T03:31:16.882Z,101118.16
2022-12-19T03:33:45.720Z,101126.84
2022-12-19T03:36:19.976Z,101112.09
2022-12-19T03:38:48.500Z,101013.00
2022-12-19T03:41:38.421Z,101100.94
2022-12-19T03:44:07.652Z,101095.78
2022-12-19T03:46:41.079Z,101044.38
2022-12-19T03:49:07.461Z,101027.88
2022-12-19T03:51:46.164Z,101039.31
2022-12-19T03:54:22.127Z,101101.09
2022-12-19T03:57:07.642Z,101082.88
2022-12-19T03:59:48.956Z,101085.44
2022-12-19T04:02:17.651Z,101070.88
2022-12-19T04:04:47.222Z,101033.47
2022-12-19T04:07:14.881Z,101061.34
2022-12-19T04:09:43.349Z,101073.41
2022-12-19T04:12:17.762Z,101054.31
2022-12-19T04:14:44.745Z,101059.59
2022-12-19T04:17:39.289Z,101098.72
2022-12-19T04:20:12.350Z,101074.41
2022-12-19T04:22:57.041Z,101056.00
2022-12-19T04:25:32.070Z,101044.03
2022-12-19T04:28:05.372Z,101112.63
2022-12-19T04:30:36.755Z,100997.16
2022-12-19T04:33:03.931Z,101105.78
2022-12-19T04:35:30.495Z,101006.69
2022-12-19T04:37:57.036Z,100998.75
2022-12-19T04:40:23.883Z,101104.97
2022-12-19T04:42:53.489Z,100972.00
2022-12-19T04:45:22.964Z,100997.38
2022-12-19T04:47:49.724Z,101041.75
2022-12-19T04:50:16.331Z,101066.13
2022-12-19T04:52:42.840Z,101001.81
2022-12-19T04:55:09.855Z,100980.19
2022-12-19T04:57:36.361Z,100987.19
2022-12-19T05:00:05.008Z,100948.16
2022-12-19T05:02:32.243Z,101000.34
2022-12-19T05:04:59.257Z,101073.28
2022-12-19T05:07:25.679Z,100924.91
2022-12-19T05:09:52.136Z,100945.09
2022-12-19T05:12:18.651Z,100953.88
2022-12-19T05:14:45.676Z,101055.50
2022-12-19T05:17:12.051Z,100940.09
2022-12-19T05:19:38.547Z,100968.75
2022-12-19T05:22:05.215Z,100878.34
2022-12-19T05:24:31.656Z,101036.34
2022-12-19T05:26:58.687Z,101072.78
2022-12-19T05:29:27.639Z,100974.75
2022-12-19T05:31:54.189Z,101019.03
2022-12-19T05:34:20.653Z,100940.06
2022-12-19T05:36:47.225Z,100958.41
2022-12-19T05:39:16.501Z,100945.41
2022-12-19T05:41:46.291Z,100888.22
2022-12-19T05:44:15.153Z,100923.78
2022-12-19T05:46:41.894Z,100956.78
2022-12-19T05:49:08.507Z,100838.88
2022-12-19T05:51:45.419Z,100924.00
2022-12-19T05:54:11.924Z,101035.91
2022-12-19T05:56:38.660Z,101054.19
2022-12-19T05:59:06.210Z,100826.88
2022-12-19T06:01:32.964Z,100906.69
2022-12-19T06:03:59.421Z,101005.66
2022-12-19T06:06:27.232Z,100936.28
2022-12-19T06:08:55.280Z,101052.66
2022-12-19T06:11:22.242Z,100998.78
2022-12-19T06:13:48.664Z,100867.84
2022-12-19T06:16:17.410Z,101042.31
2022-12-19T06:18:45.641Z,101057.94
2022-12-19T06:21:15.181Z,100967.72
2022-12-19T06:23:42.463Z,101061.53
2022-12-19T06:26:18.270Z,101039.81
2022-12-19T06:28:45.652Z,101078.88
2022-12-19T06:31:12.822Z,101041.72
2022-12-19T06:33:39.304Z,101035.66
2022-12-19T06:36:15.750Z,101047.81
2022-12-19T06:38:42.214Z,100929.13
2022-12-19T06:41:29.164Z,101062.72
2022-12-19T06:44:03.934Z,101007.25
2022-12-19T06:46:30.960Z,101048.09
2022-12-19T06:48:57.401Z,101047.31
2022-12-19T06:51:23.753Z,100956.28
2022-12-19T06:53:50.938Z,101050.91
2022-12-19T06:56:17.899Z,101020.56
2022-12-19T06:58:44.610Z,101050.94
2022-12-19T07:01:30.155Z,101001.50
2022-12-19T07:03:56.986Z,101042.38
2022-12-19T07:06:23.556Z,100930.56
2022-12-19T07:08:49.890Z,101011.22
2022-12-19T07:11:16.271Z,101018.19
2022-12-19T07:13:42.635Z,101031.28
2022-12-19T07:16:09.193Z,101055.56
2022-12-19T07:18:39.617Z,101007.88
2022-12-19T07:21:07.693Z,101037.38
2022-12-19T07:23:35.139Z,101022.66
2022-12-19T07:26:01.660Z,101044.34
2022-12-19T07:28:28.051Z,101007.06
2022-12-19T07:30:54.380Z,101029.59
2022-12-19T07:33:21.993Z,100985.41
2022-12-19T07:35:48.583Z,101032.19
2022-12-19T07:38:15.131Z,100979.38
2022-12-19T07:40:41.443Z,101067.78
2022-12-19T07:43:07.827Z,100977.59
2022-12-19T07:45:37.527Z,101071.25
2022-12-19T07:48:05.676Z,101078.19
2022-12-19T07:50:32.073Z,101073.84
2022-12-19T07:52:58.952Z,101050.44
2022-12-19T07:55:26.233Z,101058.28
2022-12-19T07:57:53.534Z,101054.78
2022-12-19T08:00:19.983Z,101053.91
2022-12-19T08:02:46.771Z,101043.53
2022-12-19T08:05:13.414Z,101049.59
2022-12-19T08:07:40.644Z,100988.03
2022-12-19T08:10:07.979Z,101067.81
2022-12-19T08:12:34.320Z,101066.94
2022-12-19T08:15:00.660Z,101096.38
2022-12-19T08:17:27.088Z,101034.88
2022-12-19T08:19:53.566Z,101090.34
2022-12-19T08:22:19.959Z,101071.28
2022-12-19T08:24:46.421Z,101069.53
2022-12-19T08:27:12.786Z,101085.09
2022-12-19T08:29:39.206Z,101042.63
2022-12-19T08:32:05.596Z,101061.72
2022-12-19T08:34:32.773Z,101059.16
2022-12-19T08:36:59.295Z,101064.31
2022-12-19T08:39:25.635Z,101031.41
2022-12-19T08:41:52.222Z,100979.44
2022-12-19T08:44:18.600Z,101031.38
2022-12-19T08:46:49.918Z,101038.28
2022-12-19T08:49:16.815Z,101072.09
2022-12-19T08:51:43.204Z,101047.84
2022-12-19T08:54:11.659Z,100936.97
2022-12-19T08:56:44.007Z,101016.66
2022-12-19T08:59:15.854Z,100981.13
2022-12-19T09:01:56.575Z,101067.72
2022-12-19T09:05:39.522Z,101060.78
2022-12-19T09:07:09.286Z,101065.13
2022-12-19T09:09:35.665Z,101028.78
2022-12-19T09:12:01.988Z,101059.03
2022-12-19T09:14:32.810Z,101085.88
2022-12-19T09:16:59.260Z,101076.31
2022-12-19T09:19:27.265Z,100975.75
2022-12-19T09:21:53.632Z,101032.91
2022-12-19T09:24:21.279Z,101037.22
2022-12-19T09:26:47.621Z,100967.06
2022-12-19T09:29:20.800Z,101055.41
2022-12-19T09:31:55.897Z,101059.72
2022-12-19T09:34:31.868Z,101061.44
2022-12-19T09:37:06.347Z,101038.00
2022-12-19T09:39:33.323Z,101047.63
2022-12-19T09:42:40.696Z,101070.09
2022-12-19T09:45:31.806Z,101075.25
2022-12-19T09:47:59.435Z,101058.78
2022-12-19T09:50:47.854Z,101081.38
2022-12-19T09:53:38.082Z,101050.13
2022-12-19T09:56:10.611Z,101055.28
2022-12-19T09:59:00.697Z,101081.25
2022-12-19T10:01:36.127Z,101065.66
2022-12-19T10:04:10.380Z,101069.16
2022-12-19T10:07:19.831Z,101072.66
2022-12-19T10:11:26.578Z,101068.25
2022-12-19T10:12:49.914Z,101048.28
2022-12-19T10:15:26.480Z,101088.13
2022-12-19T10:17:58.670Z,101080.28
2022-12-19T10:20:35.356Z,101082.88
2022-12-19T10:23:14.668Z,101077.66
2022-12-19T10:26:01.534Z,101088.88
2022-12-19T10:29:15.843Z,101091.50
2022-12-19T10:31:54.731Z,101081.09
2022-12-19T10:34:40.771Z,100972.88
2022-12-19T10:37:27.132Z,101076.75
2022-12-19T10:40:01.727Z,101072.38
2022-12-19T10:42:55.465Z,101065.41
2022-12-19T10:45:24.100Z,101024.75
2022-12-19T10:47:56.372Z,101055.81
2022-12-19T10:50:29.464Z,101024.69
2022-12-19T10:53:08.037Z,101043.53
2022-12-19T10:55:43.859Z,101051.34
2022-12-19T10:58:33.723Z,101058.22
2022-12-19T11:01:05.680Z,101054.75
2022-12-19T11:03:34.149Z,101057.28
2022-12-19T11:06:02.661Z,101053.78
2022-12-19T11:08:31.815Z,101055.53
2022-12-19T11:12:29.764Z,101047.66
2022-12-19T11:20:33.014Z,100997.44
2022-12-19T11:24:29.206Z,101014.72
2022-12-19T11:29:16.308Z,101019.94
2022-12-19T11:29:44.431Z,100992.19
2022-12-19T11:30:09.085Z,101018.13
2022-12-19T11:30:48.667Z,101007.66
2022-12-19T11:34:15.320Z,101045.59
2022-12-19T11:36:53.728Z,100970.22
2022-12-19T11:39:42.946Z,101020.28
2022-12-19T11:42:34.258Z,101017.44
2022-12-19T11:45:25.474Z,101021.88
2022-12-19T11:48:03.220Z,101011.72
2022-12-19T11:50:53.542Z,100995.28
2022-12-19T11:53:36.028Z,101039.94
2022-12-19T11:56:16.432Z,101005.97
2022-12-19T11:58:49.400Z,101010.25
2022-12-19T12:01:57.864Z,101031.00
2022-12-19T12:05:09.681Z,100983.44
2022-12-19T12:08:56.006Z,101010.13
2022-12-19T12:16:48.406Z,101001.38
2022-12-19T12:23:11.383Z,101010.00
2022-12-19T12:27:42.061Z,101003.09
2022-12-19T12:31:22.107Z,100998.63
2022-12-19T12:31:23.332Z,100982.34
2022-12-19T12:31:46.193Z,100998.59
2022-12-19T12:31:47.567Z,100999.53
2022-12-19T12:35:54.201Z,100950.16
2022-12-19T12:38:38.095Z,100996.78
2022-12-19T12:41:44.104Z,100914.59
2022-12-19T12:44:12.148Z,100911.13
2022-12-19T12:46:48.991Z,100905.91
2022-12-19T12:49:48.866Z,100988.91
2022-12-19T12:52:35.209Z,100952.66
2022-12-19T12:55:04.638Z,100947.59
2022-12-19T12:57:37.724Z,100959.69
2022-12-19T13:00:20.784Z,100961.47
2022-12-19T13:02:54.502Z,100980.41
2022-12-19T13:05:45.840Z,100982.16
2022-12-19T13:08:36.192Z,100931.06
2022-12-19T13:11:19.737Z,100900.88
2022-12-19T13:13:52.979Z,100969.84
2022-12-19T13:16:45.663Z,100869.69
2022-12-19T13:19:21.019Z,100969.84
2022-12-19T13:22:08.857Z,100972.38
2022-12-19T13:24:39.797Z,100974.97
2022-12-19T13:27:18.429Z,100971.56
2022-12-19T13:29:54.143Z,100975.06
2022-12-19T13:32:22.701Z,100874.75
2022-12-19T13:35:28.225Z,100944.00
2022-12-19T13:39:57.949Z,100940.41
2022-12-19T13:40:55.367Z,100854.97
2022-12-19T13:43:47.378Z,100970.00
2022-12-19T13:46:42.451Z,100936.25
2022-12-19T13:49:38.252Z,100934.50
2022-12-19T13:52:06.617Z,100945.88
2022-12-19T13:54:50.792Z,100930.22
2022-12-19T13:57:22.989Z,100893.81
2022-12-19T14:00:00.206Z,100850.56
2022-12-19T14:02:32.530Z,100925.59
2022-12-19T14:06:16.118Z,100927.91
2022-12-19T14:08:28.475Z,100812.06
2022-12-19T14:11:35.283Z,100799.97
2022-12-19T14:14:18.959Z,100861.94
2022-12-19T14:16:48.418Z,100889.47
2022-12-19T14:19:19.019Z,100831.78
2022-12-19T14:22:03.579Z,100836.16
2022-12-19T14:24:31.756Z,100846.44
2022-12-19T14:28:20.603Z,100847.13
2022-12-19T14:30:29.095Z,100751.38
2022-12-19T14:33:43.766Z,100827.84
2022-12-19T14:36:12.072Z,100841.84
2022-12-19T14:39:23.551Z,100886.75
2022-12-19T14:41:40.831Z,100808.28
2022-12-19T14:52:08.521Z,100756.97
2022-12-19T14:54:16.121Z,100843.81
2022-12-19T14:54:22.220Z,100691.44
2022-12-19T14:54:29.064Z,100723.25
2022-12-19T14:56:16.764Z,100841.03
2022-12-19T14:58:54.462Z,100811.94
2022-12-19T15:01:26.467Z,100755.72
2022-12-19T15:04:48.980Z,100868.22
2022-12-19T15:07:08.897Z,100872.63
2022-12-19T15:10:58.873Z,100872.38
2022-12-19T15:14:50.942Z,100877.50
2022-12-19T15:16:05.907Z,100885.59
2022-12-19T15:18:32.375Z,100883.03
2022-12-19T15:21:01.142Z,100882.09
2022-12-19T15:23:29.118Z,100873.38
2022-12-19T15:26:06.134Z,100850.97
2022-12-19T15:28:42.974Z,100800.38
2022-12-19T15:31:18.369Z,100871.88
2022-12-19T15:34:14.308Z,100870.19
2022-12-19T15:36:31.626Z,100867.50
2022-12-19T15:38:58.090Z,100875.28
2022-12-19T15:41:25.259Z,100868.44
2022-12-19T15:44:03.843Z,100830.53
2022-12-19T15:46:32.213Z,100873.78
2022-12-19T15:48:58.647Z,100881.56
2022-12-19T15:51:24.981Z,100811.75
2022-12-19T15:53:51.372Z,100865.19
2022-12-19T15:56:30.396Z,100883.38
2022-12-19T15:59:00.383Z,100808.13
2022-12-19T16:01:28.044Z,100889.31
2022-12-19T16:03:58.824Z,100898.00
2022-12-19T16:06:25.720Z,100882.53
2022-12-19T16:08:52.085Z,100766.88
2022-12-19T16:11:22.653Z,100877.06
2022-12-19T16:13:52.834Z,100870.25
2022-12-19T16:16:19.357Z,100849.47
2022-12-19T16:18:47.350Z,100880.53
2022-12-19T16:21:27.372Z,100869.41
2022-12-19T16:23:57.815Z,100846.25
2022-12-19T16:26:31.335Z,100877.03
2022-12-19T16:28:58.473Z,100859.84
2022-12-19T16:31:26.380Z,100840.84
2022-12-19T16:33:53.594Z,100796.09
2022-12-19T16:36:20.449Z,100866.88
2022-12-19T16:38:47.271Z,100869.50
2022-12-19T16:41:24.999Z,100789.13
2022-12-19T16:43:52.180Z,100911.03
2022-12-19T16:46:21.617Z,100921.63
2022-12-19T16:48:48.838Z,100882.91
2022-12-19T16:51:25.587Z,100919.22
2022-12-19T16:53:54.931Z,100924.53
2022-12-19T16:56:44.663Z,100928.09
2022-12-19T16:59:16.218Z,100909.28
2022-12-19T17:01:45.056Z,100912.78
2022-12-19T17:04:17.357Z,100923.00
2022-12-19T17:06:43.941Z,100893.50
2022-12-19T17:09:18.702Z,100934.91
2022-12-19T17:11:48.255Z,100877.91
2022-12-19T17:14:20.959Z,100929.59
2022-12-19T17:16:48.299Z,100941.75
2022-12-19T17:19:23.502Z,100937.22
2022-12-19T17:21:50.808Z,100866.19
2022-12-19T17:24:18.648Z,100935.50
2022-12-19T17:26:46.199Z,100884.50
2022-12-19T17:29:13.535Z,100939.84
2022-12-19T17:31:40.656Z,100894.59
2022-12-19T17:34:15.778Z,100867.91
2022-12-19T17:36:42.253Z,100911.84
2022-12-19T17:39:29.485Z,100909.94
2022-12-19T17:41:58.995Z,100857.47
2022-12-19T17:44:25.351Z,100883.03
2022-12-19T17:46:52.427Z,100871.84
2022-12-19T17:49:38.259Z,100884.13
2022-12-19T17:52:09.447Z,100921.25
2022-12-19T17:54:36.033Z,100887.28
2022-12-19T17:57:02.361Z,100912.25
2022-12-19T17:59:28.691Z,100915.88
2022-12-19T18:01:55.252Z,100913.34
2022-12-19T18:04:21.845Z,100917.84
2022-12-19T18:06:49.258Z,100837.22
2022-12-19T18:09:21.431Z,100862.41
2022-12-19T18:11:48.902Z,100925.53
2022-12-19T18:14:15.971Z,100915.03
2022-12-19T18:16:43.793Z,100885.59
2022-12-19T18:19:21.732Z,100854.59
2022-12-19T18:21:48.428Z,100791.31
2022-12-19T18:24:16.460Z,100907.16
2022-12-19T18:26:44.760Z,100876.81
2022-12-19T18:29:11.546Z,100862.91
2022-12-19T18:31:39.943Z,100842.28
2022-12-19T18:34:19.233Z,100868.13
2022-12-19T18:36:45.849Z,100866.59
2022-12-19T18:39:25.221Z,100923.47
2022-12-19T18:41:52.497Z,100930.53
2022-12-19T18:44:18.872Z,100913.25
2022-12-19T18:46:48.468Z,100914.19
2022-12-19T18:49:17.113Z,100922.88
2022-12-19T18:51:44.606Z,100918.53
2022-12-19T18:54:17.428Z,100883.97
2022-12-19T18:56:44.268Z,100880.47
2022-12-19T18:59:11.038Z,100912.34
2022-12-19T19:01:46.576Z,100890.84
2022-12-19T19:04:17.405Z,100897.88
2022-12-19T19:06:50.957Z,100906.47
2022-12-19T19:09:19.378Z,100917.78
2022-12-19T19:11:45.876Z,100888.25
2022-12-19T19:14:12.398Z,100924.75
2022-12-19T19:16:39.850Z,100895.19
2022-12-19T19:19:10.017Z,100932.94
2022-12-19T19:21:37.087Z,100816.47
2022-12-19T19:24:08.802Z,100892.50
2022-12-19T19:26:35.460Z,100913.34
2022-12-19T19:29:03.006Z,100918.34
2022-12-19T19:31:34.259Z,100896.63
2022-12-19T19:34:09.934Z,100925.31
2022-12-19T19:36:40.161Z,100884.69
2022-12-19T19:39:06.561Z,100901.78
2022-12-19T19:41:34.226Z,100845.81
2022-12-19T19:44:01.250Z,100935.38
2022-12-19T19:46:28.125Z,100949.44
2022-12-19T19:48:55.180Z,100947.66
2022-12-19T19:51:21.529Z,100898.06
2022-12-19T19:53:47.875Z,100918.91
2022-12-19T19:56:14.253Z,100895.63
2022-12-19T19:58:40.742Z,100849.66
2022-12-19T20:01:11.402Z,100909.56
2022-12-19T20:03:39.898Z,100899.66
2022-12-19T20:06:06.699Z,100879.94
2022-12-19T20:08:39.163Z,100909.19
2022-12-19T20:11:07.112Z,100883.00
2022-12-19T20:13:34.109Z,100867.41
2022-12-19T20:16:06.612Z,100937.53
2022-12-19T20:18:33.939Z,100894.94
2022-12-19T20:21:00.268Z,100869.84
2022-12-19T20:23:30.801Z,100884.56
2022-12-19T20:26:01.751Z,100863.09
2022-12-19T20:28:28.504Z,100894.69
2022-12-19T20:30:54.920Z,100884.47
2022-12-19T20:33:21.658Z,100856.50
2022-12-19T20:35:47.974Z,100859.81
2022-12-19T20:38:14.414Z,100910.16
2022-12-19T20:40:40.809Z,100874.69
2022-12-19T20:43:07.283Z,100894.81
2022-12-19T20:45:33.677Z,100854.56
2022-12-19T20:48:00.132Z,100927.03
2022-12-19T20:50:26.517Z,100796.00
2022-12-19T20:52:52.872Z,100870.47
2022-12-19T20:55:19.574Z,100884.19
2022-12-19T20:57:45.892Z,100884.19
2022-12-19T21:00:14.665Z,100863.41
2022-12-19T21:03:24.986Z,100913.47
2022-12-19T21:05:27.426Z,100893.84
2022-12-19T21:07:53.769Z,100897.19
2022-12-19T21:10:20.628Z,100915.28
2022-12-19T21:12:48.075Z,100885.53
2022-12-19T21:15:14.742Z,100910.59
2022-12-19T21:17:41.109Z,100913.16
2022-12-19T21:20:08.109Z,100845.91
2022-12-19T21:22:34.485Z,100934.06
2022-12-19T21:25:00.835Z,100919.47
2022-12-19T21:27:27.189Z,100893.53
2022-12-19T21:29:53.593Z,100902.78
2022-12-19T21:32:20.026Z,100833.81
2022-12-19T21:34:46.426Z,100890.78
2022-12-19T21:37:12.748Z,100897.22
2022-12-19T21:39:39.090Z,100890.53
2022-12-19T21:42:05.426Z,100908.47
2022-12-19T21:44:31.739Z,100880.16
2022-12-19T21:46:58.223Z,100897.50
2022-12-19T21:49:24.694Z,100869.56
2022-12-19T21:51:51.546Z,100859.28
2022-12-19T21:54:18.226Z,100894.75
2022-12-19T21:56:44.690Z,100835.16
2022-12-19T21:59:13.900Z,100912.59
2022-12-19T22:01:41.723Z,100782.50
2022-12-19T22:04:12.581Z,100878.50
2022-12-19T22:06:39.242Z,100811.03
2022-12-19T22:09:08.399Z,100865.44
2022-12-19T22:11:36.256Z,100797.09
2022-12-19T22:14:04.534Z,100915.34
2022-12-19T22:16:31.564Z,100902.47
2022-12-19T22:18:57.999Z,100871.91
2022-12-19T22:21:25.561Z,100871.03
2022-12-19T22:23:52.120Z,100905.38
2022-12-19T22:26:23.073Z,100917.84
2022-12-19T22:28:52.046Z,100914.06
2022-12-19T22:31:24.380Z,100915.72
2022-12-19T22:33:53.464Z,100913.94
2022-12-19T22:36:27.658Z,100883.38
2022-12-19T22:38:55.651Z,100911.56
2022-12-19T22:41:22.114Z,100912.34
2022-12-19T22:43:48.673Z,100902.06
2022-12-19T22:46:18.506Z,100906.31
2022-12-19T22:48:46.575Z,100876.75
2022-12-19T22:51:13.857Z,100857.88
2022-12-19T22:53:41.100Z,100880.91
2022-12-19T22:56:12.219Z,100823.94
2022-12-19T22:58:40.406Z,100838.50
2022-12-19T23:01:20.254Z,100860.94
2022-12-19T23:03:49.514Z,100822.91
2022-12-19T23:06:17.004Z,100685.00
2022-12-19T23:08:43.866Z,100820.22
2022-12-19T23:11:13.448Z,100848.50
2022-12-19T23:13:41.405Z,100846.72
2022-12-19T23:16:08.529Z,100810.22
2022-12-19T23:18:35.001Z,100791.56
2022-12-19T23:21:09.139Z,100797.72
2022-12-19T23:23:40.180Z,100820.00
2022-12-19T23:26:15.141Z,100846.78
2022-12-19T23:28:43.008Z,100845.00
2022-12-19T23:31:12.121Z,100855.56
2022-12-19T23:33:38.852Z,100818.97
2022-12-19T23:36:06.166Z,100832.78
2022-12-19T23:38:32.582Z,100830.06
2022-12-19T23:41:04.261Z,100853.25
2022-12-19T23:43:32.503Z,100827.53
2022-12-19T23:45:59.067Z,100806.66
2022-12-19T23:48:26.438Z,100822.28
2022-12-19T23:51:04.532Z,100808.19
2022-12-19T23:53:31.734Z,100853.00
2022-12-19T23:55:58.946Z,100851.66
2022-12-19T23:58:25.432Z,100760.25
